createdAt,value
2023-01-18T00:01:54.699Z,21.10
2023-01-18T00:04:27.611Z,20.40
2023-01-18T00:06:59.245Z,22.50
2023-01-18T00:09:31.438Z,24.80
2023-01-18T00:12:05.146Z,26.70
2023-01-18T00:14:39.275Z,24.00
2023-01-18T00:17:09.607Z,28.80
2023-01-18T00:19:44.324Z,28.60
2023-01-18T00:22:17.954Z,22.50
2023-01-18T00:24:51.213Z,24.70
2023-01-18T00:27:24.284Z,23.20
2023-01-18T00:29:57.795Z,26.50
2023-01-18T00:32:29.745Z,26.50
2023-01-18T00:35:09.755Z,27.50
2023-01-18T00:37:41.392Z,28.60
2023-01-18T00:40:13.213Z,29.00
2023-01-18T00:43:04.915Z,29.70
2023-01-18T00:45:36.117Z,29.60
2023-01-18T00:48:08.212Z,31.20
2023-01-18T00:50:42.053Z,28.90
2023-01-18T00:53:14.022Z,28.10
2023-01-18T00:55:48.903Z,30.40
2023-01-18T00:58:22.949Z,29.80
2023-01-18T01:00:56.705Z,28.50
2023-01-18T01:03:31.398Z,27.50
2023-01-18T01:06:20.981Z,32.60
2023-01-18T01:08:50.774Z,37.00
2023-01-18T01:11:19.255Z,30.50
2023-01-18T01:14:06.781Z,29.00
2023-01-18T01:16:54.401Z,29.90
2023-01-18T01:19:42.241Z,29.30
2023-01-18T01:22:29.660Z,28.50
2023-01-18T01:25:18.133Z,26.30
2023-01-18T01:27:46.810Z,28.50
2023-01-18T01:30:15.966Z,27.60
2023-01-18T01:32:45.310Z,27.60
2023-01-18T01:35:14.209Z,32.00
2023-01-18T01:37:42.887Z,31.50
2023-01-18T01:40:12.636Z,31.90
2023-01-18T01:42:42.408Z,32.00
2023-01-18T01:45:11.460Z,30.50
2023-01-18T01:47:42.970Z,30.50
2023-01-18T01:50:33.338Z,28.70
2023-01-18T01:53:02.267Z,31.40
2023-01-18T01:55:34.304Z,32.10
2023-01-18T01:58:04.620Z,30.10
2023-01-18T02:00:33.396Z,30.00
2023-01-18T02:03:05.062Z,29.20
2023-01-18T02:05:37.240Z,27.90
2023-01-18T02:08:11.661Z,33.00
2023-01-18T02:10:40.642Z,29.90
2023-01-18T02:13:10.449Z,35.10
2023-01-18T02:16:00.843Z,32.60
2023-01-18T02:18:44.581Z,30.10
2023-01-18T02:21:19.108Z,30.90
2023-01-18T02:24:09.197Z,34.80
2023-01-18T02:26:57.628Z,35.00
2023-01-18T02:29:44.871Z,31.90
2023-01-18T02:32:35.770Z,31.10
2023-01-18T02:35:23.693Z,31.20
2023-01-18T02:38:11.323Z,34.90
2023-01-18T02:40:55.262Z,32.00
2023-01-18T02:43:43.411Z,37.80
2023-01-18T02:46:36.197Z,31.60
2023-01-18T02:49:09.962Z,30.80
2023-01-18T02:51:39.773Z,33.90
2023-01-18T02:54:25.759Z,33.70
2023-01-18T02:56:57.447Z,36.90
2023-01-18T02:59:31.232Z,35.00
2023-01-18T03:02:03.163Z,41.50
2023-01-18T03:04:36.994Z,34.90
2023-01-18T03:07:19.451Z,32.90
2023-01-18T03:09:48.811Z,35.90
2023-01-18T03:12:46.384Z,37.30
2023-01-18T03:15:48.085Z,34.30
2023-01-18T03:18:31.071Z,35.70
2023-01-18T03:21:06.185Z,33.70
2023-01-18T03:23:41.350Z,41.80
2023-01-18T03:26:16.726Z,44.30
2023-01-18T03:29:18.123Z,37.30
2023-01-18T03:32:16.329Z,38.10
2023-01-18T03:35:15.044Z,36.00
2023-01-18T03:37:48.071Z,38.50
2023-01-18T03:40:27.885Z,34.10
2023-01-18T03:43:15.404Z,37.70
2023-01-18T03:45:46.629Z,41.70
2023-01-18T03:48:15.782Z,34.70
2023-01-18T03:51:05.155Z,43.10
2023-01-18T03:54:06.213Z,35.30
2023-01-18T03:56:52.724Z,34.70
2023-01-18T03:59:22.113Z,36.30
2023-01-18T04:01:51.062Z,34.70
2023-01-18T04:04:19.791Z,33.90
2023-01-18T04:06:48.565Z,37.50
2023-01-18T04:09:16.985Z,30.10
2023-01-18T04:11:47.771Z,31.40
2023-01-18T04:14:20.611Z,37.60
2023-01-18T04:16:54.649Z,35.40
2023-01-18T04:19:28.073Z,32.10
2023-01-18T04:22:02.540Z,27.40
2023-01-18T04:24:35.138Z,29.10
2023-01-18T04:27:08.390Z,31.80
2023-01-18T04:29:44.695Z,29.40
2023-01-18T04:32:18.646Z,30.20
2023-01-18T04:34:51.679Z,30.00
2023-01-18T04:37:35.889Z,35.60
2023-01-18T04:40:09.475Z,32.20
2023-01-18T04:42:41.242Z,31.00
2023-01-18T04:45:16.379Z,35.60
2023-01-18T04:47:50.317Z,33.60
2023-01-18T04:50:23.643Z,34.30
2023-01-18T04:52:55.327Z,36.50
2023-01-18T04:55:29.811Z,35.00
2023-01-18T04:58:01.816Z,35.50
2023-01-18T05:00:36.232Z,35.90
2023-01-18T05:03:13.035Z,33.80
2023-01-18T05:05:46.799Z,37.70
2023-01-18T05:08:18.449Z,34.00
2023-01-18T05:10:52.122Z,36.90
2023-01-18T05:13:20.776Z,34.70
2023-01-18T05:15:50.567Z,35.20
2023-01-18T05:18:19.236Z,34.50
2023-01-18T05:20:52.227Z,35.60
2023-01-18T05:23:25.674Z,33.40
2023-01-18T05:26:01.391Z,30.40
2023-01-18T05:28:34.935Z,37.70
2023-01-18T05:31:09.464Z,39.50
2023-01-18T05:33:41.251Z,36.00
2023-01-18T05:36:16.392Z,28.50
2023-01-18T05:38:50.309Z,31.20
2023-01-18T05:41:23.043Z,32.10
2023-01-18T05:43:53.707Z,35.50
2023-01-18T05:46:25.514Z,38.10
2023-01-18T05:49:01.493Z,33.50
2023-01-18T05:51:31.538Z,27.80
2023-01-18T05:54:01.472Z,25.80
2023-01-18T05:56:34.591Z,31.80
2023-01-18T05:59:08.303Z,29.20
2023-01-18T06:01:41.137Z,31.80
2023-01-18T06:04:15.379Z,34.20
2023-01-18T06:06:48.905Z,31.20
2023-01-18T06:09:22.711Z,41.70
2023-01-18T06:11:57.535Z,40.60
2023-01-18T06:14:31.190Z,39.90
2023-01-18T06:17:05.761Z,43.00
2023-01-18T06:19:41.705Z,41.20
2023-01-18T06:22:15.954Z,46.50
2023-01-18T06:24:50.197Z,23.90
2023-01-18T06:27:20.429Z,35.60
2023-01-18T06:29:50.956Z,37.40
2023-01-18T06:32:19.519Z,28.90
2023-01-18T06:34:48.107Z,33.00
2023-01-18T06:37:17.635Z,30.70
2023-01-18T06:39:46.497Z,28.10
2023-01-18T06:42:15.386Z,33.10
2023-01-18T06:44:44.405Z,25.60
2023-01-18T06:47:15.965Z,33.10
2023-01-18T06:49:45.039Z,35.10
2023-01-18T06:52:14.540Z,21.00
2023-01-18T06:54:43.541Z,31.80
2023-01-18T06:57:15.638Z,31.00
2023-01-18T06:59:50.302Z,24.40
2023-01-18T07:02:22.528Z,32.80
2023-01-18T07:04:56.606Z,29.00
2023-01-18T07:07:29.003Z,31.70
2023-01-18T07:09:57.982Z,35.00
2023-01-18T07:12:27.196Z,26.30
2023-01-18T07:14:55.957Z,32.80
2023-01-18T07:17:24.834Z,28.50
2023-01-18T07:19:53.537Z,27.10
2023-01-18T07:22:22.627Z,27.50
2023-01-18T07:24:51.109Z,24.60
2023-01-18T07:27:19.897Z,20.80
2023-01-18T07:29:50.124Z,24.90
2023-01-18T07:32:18.895Z,23.40
2023-01-18T07:34:47.375Z,18.30
2023-01-18T07:37:16.490Z,22.30
2023-01-18T07:39:46.187Z,19.30
2023-01-18T07:42:14.867Z,20.10
2023-01-18T07:44:43.448Z,20.60
2023-01-18T07:47:12.541Z,22.60
2023-01-18T07:49:41.862Z,22.00
2023-01-18T07:52:10.836Z,20.80
2023-01-18T07:54:39.625Z,20.60
2023-01-18T07:57:08.635Z,20.80
2023-01-18T07:59:40.270Z,19.10
2023-01-18T08:02:12.941Z,22.20
2023-01-18T08:04:45.733Z,15.20
2023-01-18T08:07:15.406Z,21.50
2023-01-18T08:09:46.418Z,24.90
2023-01-18T08:12:25.739Z,24.50
2023-01-18T08:14:55.733Z,19.10
2023-01-18T08:17:24.638Z,25.40
2023-01-18T08:19:53.437Z,17.50
2023-01-18T08:22:22.115Z,19.90
2023-01-18T08:24:50.823Z,18.30
2023-01-18T08:27:19.971Z,19.20
2023-01-18T08:29:48.664Z,19.70
2023-01-18T08:32:17.852Z,28.50
2023-01-18T08:34:47.064Z,19.90
2023-01-18T08:37:16.682Z,17.20
2023-01-18T08:39:45.349Z,19.10
2023-01-18T08:42:14.034Z,20.10
2023-01-18T08:44:42.918Z,19.60
2023-01-18T08:47:11.808Z,19.70
2023-01-18T08:49:40.520Z,21.10
2023-01-18T08:52:11.410Z,21.90
2023-01-18T08:54:41.659Z,16.00
2023-01-18T08:57:11.268Z,20.30
2023-01-18T08:59:40.062Z,20.80
2023-01-18T09:02:10.966Z,22.30
2023-01-18T09:04:39.777Z,19.40
2023-01-18T09:07:08.255Z,17.90
2023-01-18T09:09:37.053Z,22.00
2023-01-18T09:12:06.245Z,21.90
2023-01-18T09:14:35.127Z,20.90
2023-01-18T09:17:04.635Z,19.90
2023-01-18T09:19:34.869Z,20.10
2023-01-18T09:22:04.270Z,19.60
2023-01-18T09:24:33.595Z,19.40
2023-01-18T09:27:06.341Z,21.20
2023-01-18T09:29:36.565Z,19.40
2023-01-18T09:32:12.189Z,22.00
2023-01-18T09:34:43.127Z,19.90
2023-01-18T09:37:12.756Z,22.90
2023-01-18T09:39:51.370Z,23.90
2023-01-18T09:42:36.141Z,29.20
2023-01-18T09:45:06.265Z,22.60
2023-01-18T09:47:41.744Z,37.70
2023-01-18T09:50:13.863Z,26.90
2023-01-18T09:53:30.778Z,27.60
2023-01-18T09:56:39.314Z,28.70
2023-01-18T09:59:26.743Z,21.20
2023-01-18T10:01:56.416Z,23.30
2023-01-18T10:04:33.286Z,22.90
2023-01-18T10:07:05.996Z,24.00
2023-01-18T10:09:43.134Z,24.60
2023-01-18T10:12:42.887Z,20.10
2023-01-18T10:15:26.972Z,23.50
2023-01-18T10:18:00.944Z,19.60
2023-01-18T10:20:42.937Z,24.20
2023-01-18T10:23:46.132Z,20.20
2023-01-18T10:26:22.385Z,21.70
2023-01-18T10:28:53.637Z,23.20
2023-01-18T10:31:44.787Z,19.80
2023-01-18T10:34:25.005Z,24.20
2023-01-18T10:37:06.217Z,21.40
2023-01-18T10:39:48.509Z,18.60
2023-01-18T10:42:24.571Z,23.80
2023-01-18T10:44:55.982Z,25.70
2023-01-18T10:47:24.909Z,23.40
2023-01-18T10:49:59.006Z,25.30
2023-01-18T10:52:30.580Z,29.50
2023-01-18T10:55:03.156Z,24.60
2023-01-18T10:57:37.781Z,24.10
2023-01-18T11:00:22.004Z,26.80
2023-01-18T11:02:53.299Z,28.80
2023-01-18T11:05:40.989Z,25.20
2023-01-18T11:08:33.525Z,29.40
2023-01-18T11:11:05.213Z,25.60
2023-01-18T11:13:42.780Z,29.40
2023-01-18T11:16:14.883Z,29.40
2023-01-18T11:19:07.251Z,30.40
2023-01-18T11:21:43.609Z,30.60
2023-01-18T11:24:19.020Z,30.90
2023-01-18T11:26:59.453Z,30.20
2023-01-18T11:29:32.903Z,33.40
2023-01-18T11:32:07.690Z,31.90
2023-01-18T11:34:41.908Z,29.90
2023-01-18T11:37:35.620Z,34.20
2023-01-18T11:40:21.153Z,31.50
2023-01-18T11:42:51.483Z,30.80
2023-01-18T11:45:40.985Z,35.30
2023-01-18T11:48:30.991Z,30.80
2023-01-18T11:51:08.760Z,31.30
2023-01-18T11:53:57.693Z,35.20
2023-01-18T11:56:50.168Z,24.80
2023-01-18T11:59:44.117Z,35.50
2023-01-18T12:02:35.050Z,30.90
2023-01-18T12:05:12.861Z,31.80
2023-01-18T12:08:10.990Z,30.30
2023-01-18T12:11:02.919Z,29.20
2023-01-18T12:14:01.220Z,26.10
2023-01-18T12:16:53.125Z,34.10
2023-01-18T12:19:39.136Z,35.90
2023-01-18T12:22:28.297Z,33.10
2023-01-18T12:25:07.966Z,31.10
2023-01-18T12:27:53.492Z,26.70
2023-01-18T12:30:36.152Z,36.70
2023-01-18T12:33:17.435Z,33.90
2023-01-18T12:36:24.557Z,30.20
2023-01-18T12:38:56.977Z,31.60
2023-01-18T12:41:41.102Z,39.50
2023-01-18T12:44:32.147Z,34.00
2023-01-18T12:47:06.607Z,39.80
2023-01-18T12:49:39.981Z,37.30
2023-01-18T12:52:19.047Z,30.70
2023-01-18T12:54:56.959Z,27.60
2023-01-18T12:57:26.971Z,30.90
2023-01-18T12:59:59.965Z,32.60
2023-01-18T13:02:56.980Z,25.10
2023-01-18T13:05:37.842Z,30.40
2023-01-18T13:08:21.892Z,29.20
2023-01-18T13:10:51.740Z,27.30
2023-01-18T13:13:26.116Z,27.40
2023-01-18T13:16:16.983Z,28.90
2023-01-18T13:19:10.009Z,30.20
2023-01-18T13:21:55.194Z,29.10
2023-01-18T13:25:19.000Z,27.60
2023-01-18T13:28:03.162Z,24.90
2023-01-18T13:30:49.554Z,29.80
2023-01-18T13:33:22.869Z,34.20
2023-01-18T13:35:56.618Z,31.00
2023-01-18T13:38:40.745Z,30.80
2023-01-18T13:41:13.844Z,26.80
2023-01-18T13:43:46.744Z,26.40
2023-01-18T13:46:16.809Z,32.30
2023-01-18T13:48:53.374Z,29.10
2023-01-18T13:51:40.590Z,26.10
2023-01-18T13:54:12.393Z,25.50
2023-01-18T13:56:43.488Z,24.60
2023-01-18T13:59:15.422Z,27.20
2023-01-18T14:01:52.969Z,30.80
2023-01-18T14:04:34.606Z,30.60
2023-01-18T14:07:07.715Z,29.10
2023-01-18T14:09:49.295Z,29.30
2023-01-18T14:12:55.797Z,30.10
2023-01-18T14:15:30.483Z,30.30
2023-01-18T14:17:59.667Z,32.20
2023-01-18T14:21:03.887Z,28.40
2023-01-18T14:24:02.985Z,31.70
2023-01-18T14:26:33.760Z,29.90
2023-01-18T14:29:26.454Z,31.10
2023-01-18T14:31:56.697Z,29.10
2023-01-18T14:34:31.323Z,29.20
2023-01-18T14:37:00.712Z,29.10
2023-01-18T14:39:32.980Z,27.80
2023-01-18T14:42:04.695Z,30.60
2023-01-18T14:44:57.453Z,30.40
2023-01-18T14:47:31.910Z,29.20
2023-01-18T14:50:04.370Z,33.20
2023-01-18T14:52:34.907Z,32.20
2023-01-18T14:55:04.758Z,32.10
2023-01-18T14:57:34.137Z,31.30
2023-01-18T15:00:17.833Z,31.00
2023-01-18T15:02:47.012Z,29.70
2023-01-18T15:05:18.785Z,26.50
2023-01-18T15:07:56.393Z,32.30
2023-01-18T15:10:26.391Z,32.50
2023-01-18T15:12:58.469Z,31.60
2023-01-18T15:15:49.246Z,31.00
2023-01-18T15:18:20.316Z,34.10
2023-01-18T15:20:59.748Z,31.20
2023-01-18T15:23:28.866Z,39.50
2023-01-18T15:25:58.383Z,42.70
2023-01-18T15:28:34.756Z,38.40
2023-01-18T15:31:14.019Z,39.80
2023-01-18T15:33:46.400Z,41.30
2023-01-18T15:36:17.249Z,39.30
2023-01-18T15:38:50.025Z,36.50
2023-01-18T15:41:19.871Z,39.30
2023-01-18T15:43:49.983Z,42.20
2023-01-18T15:46:20.211Z,39.80
2023-01-18T15:48:52.861Z,39.20
2023-01-18T15:51:23.068Z,42.20
2023-01-18T15:53:56.755Z,33.90
2023-01-18T15:56:33.690Z,36.60
2023-01-18T15:59:02.987Z,30.50
2023-01-18T16:01:35.855Z,36.10
2023-01-18T16:04:20.648Z,35.80
2023-01-18T16:06:49.726Z,29.00
2023-01-18T16:09:21.447Z,32.70
2023-01-18T16:12:00.721Z,33.60
2023-01-18T16:14:29.431Z,31.60
2023-01-18T16:17:21.092Z,31.40
2023-01-18T16:19:51.835Z,33.50
2023-01-18T16:22:24.740Z,37.30
2023-01-18T16:24:57.219Z,35.30
2023-01-18T16:27:27.569Z,36.20
2023-01-18T16:30:00.036Z,30.90
2023-01-18T16:32:36.808Z,34.30
2023-01-18T16:35:10.837Z,34.90
2023-01-18T16:37:44.910Z,42.00
2023-01-18T16:40:20.482Z,40.20
2023-01-18T16:43:03.416Z,41.50
2023-01-18T16:45:37.881Z,42.30
2023-01-18T16:48:09.343Z,37.30
2023-01-18T16:50:41.048Z,35.70
2023-01-18T16:53:10.002Z,33.10
2023-01-18T16:55:39.906Z,39.50
2023-01-18T16:58:10.937Z,43.40
2023-01-18T17:00:59.232Z,37.00
2023-01-18T17:03:29.908Z,37.90
2023-01-18T17:05:58.519Z,41.80
2023-01-18T17:08:27.780Z,42.60
2023-01-18T17:10:57.228Z,41.60
2023-01-18T17:13:26.669Z,40.50
2023-01-18T17:16:00.265Z,39.80
2023-01-18T17:18:32.111Z,37.20
2023-01-18T17:21:03.312Z,38.80
2023-01-18T17:23:36.270Z,48.10
2023-01-18T17:26:16.563Z,41.30
2023-01-18T17:28:46.376Z,38.40
2023-01-18T17:31:15.218Z,40.40
2023-01-18T17:33:45.611Z,32.90
2023-01-18T17:36:15.417Z,37.40
2023-01-18T17:38:46.770Z,46.10
2023-01-18T17:41:27.787Z,37.30
2023-01-18T17:43:58.877Z,38.90
2023-01-18T17:46:31.374Z,41.40
2023-01-18T17:49:01.836Z,41.40
2023-01-18T17:51:33.337Z,47.90
2023-01-18T17:54:10.232Z,45.40
2023-01-18T17:56:44.004Z,45.20
2023-01-18T17:59:13.724Z,41.80
2023-01-18T18:01:44.997Z,44.80
2023-01-18T18:04:19.503Z,50.50
2023-01-18T18:06:54.431Z,51.20
2023-01-18T18:09:27.319Z,37.60
2023-01-18T18:11:58.747Z,46.70
2023-01-18T18:14:30.672Z,43.90
2023-01-18T18:17:03.096Z,44.20
2023-01-18T18:19:38.018Z,44.70
2023-01-18T18:22:09.567Z,40.00
2023-01-18T18:24:40.273Z,44.00
2023-01-18T18:27:10.947Z,44.90
2023-01-18T18:29:42.537Z,42.90
2023-01-18T18:32:14.724Z,38.90
2023-01-18T18:34:44.213Z,43.50
2023-01-18T18:37:17.141Z,41.80
2023-01-18T18:39:47.467Z,40.90
2023-01-18T18:42:16.672Z,46.60
2023-01-18T18:44:47.104Z,52.50
2023-01-18T18:47:18.575Z,41.20
2023-01-18T18:49:50.060Z,44.80
2023-01-18T18:52:20.114Z,43.10
2023-01-18T18:54:51.916Z,39.90
2023-01-18T18:57:22.085Z,46.20
2023-01-18T18:59:52.319Z,45.80
2023-01-18T19:02:23.317Z,45.40
2023-01-18T19:04:55.164Z,40.00
2023-01-18T19:07:27.584Z,38.30
2023-01-18T19:10:06.574Z,42.20
2023-01-18T19:12:48.464Z,46.10
2023-01-18T19:15:18.730Z,39.80
2023-01-18T19:17:53.008Z,39.30
2023-01-18T19:20:23.780Z,43.80
2023-01-18T19:22:58.603Z,39.90
2023-01-18T19:25:30.617Z,46.50
2023-01-18T19:28:02.370Z,55.30
2023-01-18T19:30:34.125Z,49.10
2023-01-18T19:33:05.013Z,50.70
2023-01-18T19:35:43.161Z,44.30
2023-01-18T19:38:13.988Z,42.70
2023-01-18T19:40:44.459Z,46.80
2023-01-18T19:43:16.687Z,48.50
2023-01-18T19:45:47.800Z,44.20
2023-01-18T19:48:18.661Z,45.10
2023-01-18T19:50:50.198Z,49.00
2023-01-18T19:53:20.781Z,49.10
2023-01-18T19:55:59.670Z,49.00
2023-01-18T19:58:38.920Z,45.80
2023-01-18T20:01:26.554Z,37.10
2023-01-18T20:04:01.096Z,40.80
2023-01-18T20:06:32.075Z,45.30
2023-01-18T20:09:04.028Z,42.90
2023-01-18T20:11:36.041Z,50.40
2023-01-18T20:14:05.615Z,46.90
2023-01-18T20:16:38.903Z,51.60
2023-01-18T20:19:13.204Z,40.40
2023-01-18T20:21:43.603Z,39.80
2023-01-18T20:24:17.254Z,40.20
2023-01-18T20:26:47.839Z,29.80
2023-01-18T20:29:17.720Z,35.40
2023-01-18T20:31:50.376Z,39.50
2023-01-18T20:34:21.836Z,49.70
2023-01-18T20:36:54.916Z,39.00
2023-01-18T20:39:24.867Z,40.90
2023-01-18T20:41:54.465Z,48.30
2023-01-18T20:44:27.070Z,41.70
2023-01-18T20:46:57.739Z,44.60
2023-01-18T20:49:37.649Z,50.40
2023-01-18T20:52:09.604Z,44.30
2023-01-18T20:54:39.911Z,39.60
2023-01-18T20:57:10.386Z,48.00
2023-01-18T20:59:41.933Z,43.40
2023-01-18T21:02:11.699Z,51.00
2023-01-18T21:04:41.712Z,50.10
2023-01-18T21:07:11.989Z,44.00
2023-01-18T21:09:41.831Z,48.20
2023-01-18T21:12:11.429Z,50.40
2023-01-18T21:14:41.231Z,51.60
2023-01-18T21:17:10.318Z,52.20
2023-01-18T21:19:40.761Z,54.20
2023-01-18T21:22:09.522Z,52.70
2023-01-18T21:24:39.249Z,59.80
2023-01-18T21:27:08.705Z,53.70
2023-01-18T21:29:37.951Z,54.60
2023-01-18T21:32:07.083Z,57.80
2023-01-18T21:34:36.026Z,50.10
2023-01-18T21:37:04.704Z,52.60
2023-01-18T21:39:33.465Z,51.60
2023-01-18T21:42:21.531Z,56.60
2023-01-18T21:45:08.955Z,54.80
2023-01-18T21:47:37.768Z,50.00
2023-01-18T21:50:25.390Z,57.90
2023-01-18T21:53:12.900Z,59.90
2023-01-18T21:55:41.611Z,65.50
2023-01-18T21:58:29.139Z,62.60
2023-01-18T22:01:00.872Z,61.50
2023-01-18T22:03:29.676Z,61.30
2023-01-18T22:06:01.019Z,59.70
2023-01-18T22:08:29.734Z,50.50
2023-01-18T22:10:59.777Z,59.70
2023-01-18T22:13:29.239Z,62.90
2023-01-18T22:16:03.951Z,57.30
2023-01-18T22:18:32.962Z,52.60
2023-01-18T22:21:03.811Z,52.20
2023-01-18T22:23:37.536Z,52.30
2023-01-18T22:26:10.626Z,48.00
2023-01-18T22:28:43.512Z,56.10
2023-01-18T22:31:18.519Z,53.70
2023-01-18T22:33:51.844Z,47.60
2023-01-18T22:36:25.943Z,53.20
2023-01-18T22:38:59.375Z,49.30
2023-01-18T22:41:34.179Z,53.00
2023-01-18T22:44:10.849Z,57.80
2023-01-18T22:46:43.292Z,48.90
2023-01-18T22:49:16.097Z,54.60
2023-01-18T22:51:47.882Z,47.00
2023-01-18T22:54:25.071Z,47.80
2023-01-18T22:56:58.409Z,54.10
2023-01-18T22:59:32.490Z,53.50
2023-01-18T23:02:07.938Z,52.00
2023-01-18T23:04:40.338Z,54.60
2023-01-18T23:07:14.807Z,60.40
2023-01-18T23:09:50.673Z,55.80
2023-01-18T23:12:25.692Z,62.00
2023-01-18T23:15:17.635Z,55.40
2023-01-18T23:17:51.648Z,54.30
2023-01-18T23:20:21.208Z,60.80
2023-01-18T23:22:54.326Z,62.00
2023-01-18T23:25:26.706Z,55.00
2023-01-18T23:28:00.023Z,56.00
2023-01-18T23:30:32.920Z,62.40
2023-01-18T23:33:09.656Z,60.10
2023-01-18T23:35:42.045Z,56.50
2023-01-18T23:38:14.714Z,54.40
2023-01-18T23:41:07.760Z,57.90
2023-01-18T23:43:59.914Z,51.50
2023-01-18T23:46:51.175Z,42.70
2023-01-18T23:49:43.152Z,41.60
2023-01-18T23:52:32.237Z,41.20
2023-01-18T23:55:01.335Z,38.50
2023-01-18T23:57:31.341Z,44.60
